sensor_id;sensor_type;location;lat;lon;timestamp;temperature;humidity
2477;DHT22;1249;51.270;6.756;2023-01-09T00:01:35;12.20;99.90
2477;DHT22;1249;51.270;6.756;2023-01-09T00:04:05;12.20;99.90
2477;DHT22;1249;51.270;6.756;2023-01-09T00:06:32;12.20;99.90
2477;DHT22;1249;51.270;6.756;2023-01-09T00:08:59;12.20;99.90
2477;DHT22;1249;51.270;6.756;2023-01-09T00:11:26;12.20;99.90
2477;DHT22;1249;51.270;6.756;2023-01-09T00:13:53;12.20;99.90
2477;DHT22;1249;51.270;6.756;2023-01-09T00:16:19;12.20;99.90
2477;DHT22;1249;51.270;6.756;2023-01-09T00:18:46;12.10;99.90
2477;DHT22;1249;51.270;6.756;2023-01-09T00:21:15;12.20;99.90
2477;DHT22;1249;51.270;6.756;2023-01-09T00:23:42;12.10;99.90
2477;DHT22;1249;51.270;6.756;2023-01-09T00:26:10;12.10;99.90
2477;DHT22;1249;51.270;6.756;2023-01-09T00:28:37;12.10;99.90
2477;DHT22;1249;51.270;6.756;2023-01-09T00:31:06;12.10;99.90
2477;DHT22;1249;51.270;6.756;2023-01-09T00:33:34;12.20;99.90
2477;DHT22;1249;51.270;6.756;2023-01-09T00:36:01;12.20;99.90
2477;DHT22;1249;51.270;6.756;2023-01-09T00:38:29;12.10;99.90
2477;DHT22;1249;51.270;6.756;2023-01-09T00:40:57;12.10;99.90
2477;DHT22;1249;51.270;6.756;2023-01-09T00:43:28;12.10;99.90
2477;DHT22;1249;51.270;6.756;2023-01-09T00:45:55;12.10;99.90
2477;DHT22;1249;51.270;6.756;2023-01-09T00:48:24;12.10;99.90
2477;DHT22;1249;51.270;6.756;2023-01-09T00:50:56;12.10;99.90
2477;DHT22;1249;51.270;6.756;2023-01-09T00:53:25;12.10;99.90
2477;DHT22;1249;51.270;6.756;2023-01-09T00:55:55;12.10;99.90
2477;DHT22;1249;51.270;6.756;2023-01-09T00:58:24;12.00;99.90
2477;DHT22;1249;51.270;6.756;2023-01-09T01:00:50;12.00;99.90
2477;DHT22;1249;51.270;6.756;2023-01-09T01:03:17;12.00;99.90
2477;DHT22;1249;51.270;6.756;2023-01-09T01:05:44;12.00;99.90
2477;DHT22;1249;51.270;6.756;2023-01-09T01:08:28;12.00;99.90
2477;DHT22;1249;51.270;6.756;2023-01-09T01:10:56;11.90;99.90
2477;DHT22;1249;51.270;6.756;2023-01-09T01:13:23;11.80;99.90
2477;DHT22;1249;51.270;6.756;2023-01-09T01:15:49;11.90;99.90
2477;DHT22;1249;51.270;6.756;2023-01-09T01:18:16;11.90;99.90
2477;DHT22;1249;51.270;6.756;2023-01-09T01:20:43;11.90;99.90
2477;DHT22;1249;51.270;6.756;2023-01-09T01:23:11;11.80;99.90
2477;DHT22;1249;51.270;6.756;2023-01-09T01:25:38;11.80;99.90
2477;DHT22;1249;51.270;6.756;2023-01-09T01:28:07;11.80;99.90
2477;DHT22;1249;51.270;6.756;2023-01-09T01:30:36;11.80;99.90
2477;DHT22;1249;51.270;6.756;2023-01-09T01:33:03;11.80;99.90
2477;DHT22;1249;51.270;6.756;2023-01-09T01:35:30;11.80;99.90
2477;DHT22;1249;51.270;6.756;2023-01-09T01:37:57;11.80;99.90
2477;DHT22;1249;51.270;6.756;2023-01-09T01:40:23;11.80;99.90
2477;DHT22;1249;51.270;6.756;2023-01-09T01:42:52;12.00;99.90
2477;DHT22;1249;51.270;6.756;2023-01-09T01:45:22;11.80;99.90
2477;DHT22;1249;51.270;6.756;2023-01-09T01:47:53;11.80;99.90
2477;DHT22;1249;51.270;6.756;2023-01-09T01:50:30;11.70;99.90
2477;DHT22;1249;51.270;6.756;2023-01-09T01:53:04;12.00;99.90
2477;DHT22;1249;51.270;6.756;2023-01-09T01:55:34;11.80;99.90
2477;DHT22;1249;51.270;6.756;2023-01-09T01:58:04;11.80;99.90
2477;DHT22;1249;51.270;6.756;2023-01-09T02:00:35;11.80;99.90
2477;DHT22;1249;51.270;6.756;2023-01-09T02:03:06;12.00;99.90
2477;DHT22;1249;51.270;6.756;2023-01-09T02:05:33;11.80;99.90
2477;DHT22;1249;51.270;6.756;2023-01-09T02:08:00;11.80;99.90
2477;DHT22;1249;51.270;6.756;2023-01-09T02:10:27;11.90;99.90
2477;DHT22;1249;51.270;6.756;2023-01-09T02:12:54;11.80;99.90
2477;DHT22;1249;51.270;6.756;2023-01-09T02:15:21;12.00;99.90
2477;DHT22;1249;51.270;6.756;2023-01-09T02:18:21;11.80;99.90
2477;DHT22;1249;51.270;6.756;2023-01-09T02:20:54;11.70;99.90
2477;DHT22;1249;51.270;6.756;2023-01-09T02:23:54;11.70;99.90
2477;DHT22;1249;51.270;6.756;2023-01-09T02:29:45;11.70;99.90
2477;DHT22;1249;51.270;6.756;2023-01-09T02:32:30;11.80;99.90
2477;DHT22;1249;51.270;6.756;2023-01-09T02:35:08;11.60;99.90
2477;DHT22;1249;51.270;6.756;2023-01-09T02:37:45;11.50;99.90
2477;DHT22;1249;51.270;6.756;2023-01-09T02:40:20;11.50;99.90
2477;DHT22;1249;51.270;6.756;2023-01-09T02:42:47;11.50;99.90
2477;DHT22;1249;51.270;6.756;2023-01-09T02:45:15;11.50;99.90
2477;DHT22;1249;51.270;6.756;2023-01-09T02:47:44;11.50;99.90
2477;DHT22;1249;51.270;6.756;2023-01-09T02:50:15;11.50;99.90
2477;DHT22;1249;51.270;6.756;2023-01-09T02:52:58;11.60;99.90
2477;DHT22;1249;51.270;6.756;2023-01-09T02:55:37;11.50;99.90
2477;DHT22;1249;51.270;6.756;2023-01-09T02:58:10;11.50;99.90
2477;DHT22;1249;51.270;6.756;2023-01-09T03:00:46;11.50;99.90
2477;DHT22;1249;51.270;6.756;2023-01-09T03:03:23;11.60;99.90
2477;DHT22;1249;51.270;6.756;2023-01-09T03:05:56;11.60;99.90
2477;DHT22;1249;51.270;6.756;2023-01-09T03:08:32;11.60;99.90
2477;DHT22;1249;51.270;6.756;2023-01-09T03:11:01;11.50;99.90
2477;DHT22;1249;51.270;6.756;2023-01-09T03:13:34;11.50;99.90
2477;DHT22;1249;51.270;6.756;2023-01-09T03:16:06;11.50;99.90
2477;DHT22;1249;51.270;6.756;2023-01-09T03:18:36;11.50;99.90
2477;DHT22;1249;51.270;6.756;2023-01-09T03:21:05;11.50;99.90
2477;DHT22;1249;51.270;6.756;2023-01-09T03:23:48;11.50;99.90
2477;DHT22;1249;51.270;6.756;2023-01-09T03:26:15;11.50;99.90
2477;DHT22;1249;51.270;6.756;2023-01-09T03:28:42;11.50;99.90
2477;DHT22;1249;51.270;6.756;2023-01-09T03:31:10;11.50;99.90
2477;DHT22;1249;51.270;6.756;2023-01-09T03:33:38;11.40;99.90
2477;DHT22;1249;51.270;6.756;2023-01-09T03:36:05;11.40;99.90
2477;DHT22;1249;51.270;6.756;2023-01-09T03:38:33;11.40;99.90
2477;DHT22;1249;51.270;6.756;2023-01-09T03:41:01;11.40;99.90
2477;DHT22;1249;51.270;6.756;2023-01-09T03:43:28;11.40;99.90
2477;DHT22;1249;51.270;6.756;2023-01-09T03:45:55;11.30;99.90
2477;DHT22;1249;51.270;6.756;2023-01-09T03:48:21;11.30;99.90
2477;DHT22;1249;51.270;6.756;2023-01-09T03:50:50;11.30;99.90
2477;DHT22;1249;51.270;6.756;2023-01-09T03:53:18;11.30;99.90
2477;DHT22;1249;51.270;6.756;2023-01-09T03:55:46;11.30;99.90
2477;DHT22;1249;51.270;6.756;2023-01-09T03:58:13;11.20;99.90
2477;DHT22;1249;51.270;6.756;2023-01-09T04:00:40;11.20;99.90
2477;DHT22;1249;51.270;6.756;2023-01-09T04:03:07;11.40;99.90
2477;DHT22;1249;51.270;6.756;2023-01-09T04:05:34;11.20;99.90
2477;DHT22;1249;51.270;6.756;2023-01-09T04:08:03;11.30;99.90
2477;DHT22;1249;51.270;6.756;2023-01-09T04:10:30;11.30;99.90
2477;DHT22;1249;51.270;6.756;2023-01-09T04:12:57;11.20;99.90
2477;DHT22;1249;51.270;6.756;2023-01-09T04:15:24;11.20;99.90
2477;DHT22;1249;51.270;6.756;2023-01-09T04:17:50;11.20;99.90
2477;DHT22;1249;51.270;6.756;2023-01-09T04:20:17;11.20;99.90
2477;DHT22;1249;51.270;6.756;2023-01-09T04:22:44;11.10;99.90
2477;DHT22;1249;51.270;6.756;2023-01-09T04:25:12;11.20;99.90
2477;DHT22;1249;51.270;6.756;2023-01-09T04:27:39;11.20;99.90
2477;DHT22;1249;51.270;6.756;2023-01-09T04:30:08;11.10;99.90
2477;DHT22;1249;51.270;6.756;2023-01-09T04:32:34;11.20;99.90
2477;DHT22;1249;51.270;6.756;2023-01-09T04:35:01;11.10;99.90
2477;DHT22;1249;51.270;6.756;2023-01-09T04:37:28;11.10;99.90
2477;DHT22;1249;51.270;6.756;2023-01-09T04:39:55;11.10;99.90
2477;DHT22;1249;51.270;6.756;2023-01-09T04:42:23;11.00;99.90
2477;DHT22;1249;51.270;6.756;2023-01-09T04:44:50;11.00;99.90
2477;DHT22;1249;51.270;6.756;2023-01-09T04:47:18;11.00;99.90
2477;DHT22;1249;51.270;6.756;2023-01-09T04:49:45;11.10;99.90
2477;DHT22;1249;51.270;6.756;2023-01-09T04:52:12;11.00;99.90
2477;DHT22;1249;51.270;6.756;2023-01-09T04:54:39;11.00;99.90
2477;DHT22;1249;51.270;6.756;2023-01-09T04:57:06;11.00;99.90
2477;DHT22;1249;51.270;6.756;2023-01-09T04:59:34;11.00;99.90
2477;DHT22;1249;51.270;6.756;2023-01-09T05:02:01;11.00;99.90
2477;DHT22;1249;51.270;6.756;2023-01-09T05:04:28;11.10;99.90
2477;DHT22;1249;51.270;6.756;2023-01-09T05:06:54;11.00;99.90
2477;DHT22;1249;51.270;6.756;2023-01-09T05:09:21;11.10;99.90
2477;DHT22;1249;51.270;6.756;2023-01-09T05:11:48;11.10;99.90
2477;DHT22;1249;51.270;6.756;2023-01-09T05:14:15;11.10;99.90
2477;DHT22;1249;51.270;6.756;2023-01-09T05:16:43;11.20;99.90
2477;DHT22;1249;51.270;6.756;2023-01-09T05:19:10;11.10;99.90
2477;DHT22;1249;51.270;6.756;2023-01-09T05:21:36;11.10;99.90
2477;DHT22;1249;51.270;6.756;2023-01-09T05:24:04;11.10;99.90
2477;DHT22;1249;51.270;6.756;2023-01-09T05:26:31;11.20;99.90
2477;DHT22;1249;51.270;6.756;2023-01-09T05:28:57;11.20;99.90
2477;DHT22;1249;51.270;6.756;2023-01-09T05:31:25;11.10;99.90
2477;DHT22;1249;51.270;6.756;2023-01-09T05:33:56;11.20;99.90
2477;DHT22;1249;51.270;6.756;2023-01-09T05:36:25;11.20;99.90
2477;DHT22;1249;51.270;6.756;2023-01-09T05:38:52;11.10;99.90
2477;DHT22;1249;51.270;6.756;2023-01-09T05:41:22;11.10;99.90
2477;DHT22;1249;51.270;6.756;2023-01-09T05:43:48;11.10;99.90
2477;DHT22;1249;51.270;6.756;2023-01-09T05:46:15;11.30;99.90
2477;DHT22;1249;51.270;6.756;2023-01-09T05:48:42;11.20;99.90
2477;DHT22;1249;51.270;6.756;2023-01-09T05:51:10;11.20;99.90
2477;DHT22;1249;51.270;6.756;2023-01-09T05:53:37;11.30;99.90
2477;DHT22;1249;51.270;6.756;2023-01-09T05:56:04;11.20;99.90
2477;DHT22;1249;51.270;6.756;2023-01-09T05:58:32;11.20;99.90
2477;DHT22;1249;51.270;6.756;2023-01-09T06:00:59;11.20;99.90
2477;DHT22;1249;51.270;6.756;2023-01-09T06:03:26;11.20;99.90
2477;DHT22;1249;51.270;6.756;2023-01-09T06:05:52;11.20;99.90
2477;DHT22;1249;51.270;6.756;2023-01-09T06:08:21;11.20;99.90
2477;DHT22;1249;51.270;6.756;2023-01-09T06:10:47;11.20;99.90
2477;DHT22;1249;51.270;6.756;2023-01-09T06:13:14;11.10;99.90
2477;DHT22;1249;51.270;6.756;2023-01-09T06:15:41;11.20;99.90
2477;DHT22;1249;51.270;6.756;2023-01-09T06:18:08;11.20;99.90
2477;DHT22;1249;51.270;6.756;2023-01-09T06:20:34;11.20;99.90
2477;DHT22;1249;51.270;6.756;2023-01-09T06:23:01;11.20;99.90
2477;DHT22;1249;51.270;6.756;2023-01-09T06:25:29;11.20;99.90
2477;DHT22;1249;51.270;6.756;2023-01-09T06:27:56;11.20;99.90
2477;DHT22;1249;51.270;6.756;2023-01-09T06:30:23;11.20;99.90
2477;DHT22;1249;51.270;6.756;2023-01-09T06:32:49;11.20;99.90
2477;DHT22;1249;51.270;6.756;2023-01-09T06:35:16;11.20;99.90
2477;DHT22;1249;51.270;6.756;2023-01-09T06:37:45;11.20;99.90
2477;DHT22;1249;51.270;6.756;2023-01-09T06:40:12;11.20;99.90
2477;DHT22;1249;51.270;6.756;2023-01-09T06:42:43;11.20;99.90
2477;DHT22;1249;51.270;6.756;2023-01-09T06:45:10;11.20;99.90
2477;DHT22;1249;51.270;6.756;2023-01-09T06:47:37;11.20;99.90
2477;DHT22;1249;51.270;6.756;2023-01-09T06:50:05;11.20;99.90
2477;DHT22;1249;51.270;6.756;2023-01-09T06:52:32;11.30;99.90
2477;DHT22;1249;51.270;6.756;2023-01-09T06:54:59;11.30;99.90
2477;DHT22;1249;51.270;6.756;2023-01-09T06:57:25;11.30;99.90
2477;DHT22;1249;51.270;6.756;2023-01-09T06:59:53;11.30;99.90
2477;DHT22;1249;51.270;6.756;2023-01-09T07:02:21;11.30;99.90
2477;DHT22;1249;51.270;6.756;2023-01-09T07:04:47;11.30;99.90
2477;DHT22;1249;51.270;6.756;2023-01-09T07:07:14;11.30;99.90
2477;DHT22;1249;51.270;6.756;2023-01-09T07:09:42;11.30;99.90
2477;DHT22;1249;51.270;6.756;2023-01-09T07:12:09;11.30;99.90
2477;DHT22;1249;51.270;6.756;2023-01-09T07:14:37;11.30;99.90
2477;DHT22;1249;51.270;6.756;2023-01-09T07:17:05;11.30;99.90
2477;DHT22;1249;51.270;6.756;2023-01-09T07:19:32;11.30;99.90
2477;DHT22;1249;51.270;6.756;2023-01-09T07:21:59;11.90;99.90
2477;DHT22;1249;51.270;6.756;2023-01-09T07:24:25;12.20;99.90
2477;DHT22;1249;51.270;6.756;2023-01-09T07:26:52;12.50;99.90
2477;DHT22;1249;51.270;6.756;2023-01-09T07:29:19;12.80;99.90
2477;DHT22;1249;51.270;6.756;2023-01-09T07:31:46;13.00;99.90
2477;DHT22;1249;51.270;6.756;2023-01-09T07:34:14;13.20;99.90
2477;DHT22;1249;51.270;6.756;2023-01-09T07:36:40;13.20;99.90
2477;DHT22;1249;51.270;6.756;2023-01-09T07:39:10;13.40;99.90
2477;DHT22;1249;51.270;6.756;2023-01-09T07:41:37;13.50;99.90
2477;DHT22;1249;51.270;6.756;2023-01-09T07:44:04;13.60;99.90
2477;DHT22;1249;51.270;6.756;2023-01-09T07:46:31;13.70;99.90
2477;DHT22;1249;51.270;6.756;2023-01-09T07:48:58;13.80;99.90
2477;DHT22;1249;51.270;6.756;2023-01-09T07:51:26;13.80;99.90
2477;DHT22;1249;51.270;6.756;2023-01-09T07:53:53;13.90;99.90
2477;DHT22;1249;51.270;6.756;2023-01-09T07:56:20;13.90;99.90
2477;DHT22;1249;51.270;6.756;2023-01-09T07:58:46;13.90;99.90
2477;DHT22;1249;51.270;6.756;2023-01-09T08:01:13;14.00;99.90
2477;DHT22;1249;51.270;6.756;2023-01-09T08:03:40;14.00;99.90
2477;DHT22;1249;51.270;6.756;2023-01-09T08:06:07;14.00;99.90
2477;DHT22;1249;51.270;6.756;2023-01-09T08:08:36;14.00;99.90
2477;DHT22;1249;51.270;6.756;2023-01-09T08:11:02;14.00;99.90
2477;DHT22;1249;51.270;6.756;2023-01-09T08:13:29;14.00;99.90
2477;DHT22;1249;51.270;6.756;2023-01-09T08:15:56;14.00;99.90
2477;DHT22;1249;51.270;6.756;2023-01-09T08:18:23;14.00;99.90
2477;DHT22;1249;51.270;6.756;2023-01-09T08:20:49;14.10;99.90
2477;DHT22;1249;51.270;6.756;2023-01-09T08:23:16;14.00;99.90
2477;DHT22;1249;51.270;6.756;2023-01-09T08:25:44;13.70;99.90
2477;DHT22;1249;51.270;6.756;2023-01-09T08:28:11;13.60;99.90
2477;DHT22;1249;51.270;6.756;2023-01-09T08:30:38;13.30;99.90
2477;DHT22;1249;51.270;6.756;2023-01-09T08:33:05;13.20;99.90
2477;DHT22;1249;51.270;6.756;2023-01-09T08:35:31;13.10;99.90
2477;DHT22;1249;51.270;6.756;2023-01-09T08:37:58;13.00;99.90
2477;DHT22;1249;51.270;6.756;2023-01-09T08:40:25;12.80;99.90
2477;DHT22;1249;51.270;6.756;2023-01-09T08:42:53;12.70;99.90
2477;DHT22;1249;51.270;6.756;2023-01-09T08:45:37;12.60;99.90
2477;DHT22;1249;51.270;6.756;2023-01-09T08:48:21;12.50;99.90
2477;DHT22;1249;51.270;6.756;2023-01-09T08:50:48;12.40;99.90
2477;DHT22;1249;51.270;6.756;2023-01-09T08:53:15;12.40;99.90
2477;DHT22;1249;51.270;6.756;2023-01-09T08:55:42;12.30;99.90
2477;DHT22;1249;51.270;6.756;2023-01-09T08:58:10;12.30;99.90
2477;DHT22;1249;51.270;6.756;2023-01-09T09:00:37;12.30;99.90
2477;DHT22;1249;51.270;6.756;2023-01-09T09:03:04;12.20;99.90
2477;DHT22;1249;51.270;6.756;2023-01-09T09:05:31;12.20;99.90
2477;DHT22;1249;51.270;6.756;2023-01-09T09:07:58;12.10;99.90
2477;DHT22;1249;51.270;6.756;2023-01-09T09:10:27;12.10;99.90
2477;DHT22;1249;51.270;6.756;2023-01-09T09:12:55;12.10;99.90
2477;DHT22;1249;51.270;6.756;2023-01-09T09:15:24;12.10;99.90
2477;DHT22;1249;51.270;6.756;2023-01-09T09:17:52;12.10;99.90
2477;DHT22;1249;51.270;6.756;2023-01-09T09:20:20;12.10;99.90
2477;DHT22;1249;51.270;6.756;2023-01-09T09:22:47;12.10;99.90
2477;DHT22;1249;51.270;6.756;2023-01-09T09:25:14;12.10;99.90
2477;DHT22;1249;51.270;6.756;2023-01-09T09:27:41;12.10;99.90
2477;DHT22;1249;51.270;6.756;2023-01-09T09:30:10;12.10;99.90
2477;DHT22;1249;51.270;6.756;2023-01-09T09:32:39;12.10;99.90
2477;DHT22;1249;51.270;6.756;2023-01-09T09:35:07;12.10;99.90
2477;DHT22;1249;51.270;6.756;2023-01-09T09:37:34;12.10;99.90
2477;DHT22;1249;51.270;6.756;2023-01-09T09:40:01;12.20;99.90
2477;DHT22;1249;51.270;6.756;2023-01-09T09:42:49;12.30;99.90
2477;DHT22;1249;51.270;6.756;2023-01-09T09:45:43;12.40;99.90
2477;DHT22;1249;51.270;6.756;2023-01-09T09:48:27;12.60;99.90
2477;DHT22;1249;51.270;6.756;2023-01-09T09:51:10;12.90;99.90
2477;DHT22;1249;51.270;6.756;2023-01-09T09:53:42;12.90;99.90
2477;DHT22;1249;51.270;6.756;2023-01-09T09:56:15;12.90;99.90
2477;DHT22;1249;51.270;6.756;2023-01-09T09:58:45;12.90;99.90
2477;DHT22;1249;51.270;6.756;2023-01-09T10:01:19;12.80;99.90
2477;DHT22;1249;51.270;6.756;2023-01-09T10:03:51;12.70;99.90
2477;DHT22;1249;51.270;6.756;2023-01-09T10:06:24;12.60;99.90
2477;DHT22;1249;51.270;6.756;2023-01-09T10:08:56;12.60;99.90
2477;DHT22;1249;51.270;6.756;2023-01-09T10:11:31;12.50;99.90
2477;DHT22;1249;51.270;6.756;2023-01-09T10:13:59;12.50;99.90
2477;DHT22;1249;51.270;6.756;2023-01-09T10:16:50;12.40;99.90
2477;DHT22;1249;51.270;6.756;2023-01-09T10:19:36;12.50;99.90
2477;DHT22;1249;51.270;6.756;2023-01-09T10:22:15;12.50;99.90
2477;DHT22;1249;51.270;6.756;2023-01-09T10:24:52;12.50;99.90
2477;DHT22;1249;51.270;6.756;2023-01-09T10:27:31;12.70;99.90
2477;DHT22;1249;51.270;6.756;2023-01-09T10:30:15;12.50;99.90
2477;DHT22;1249;51.270;6.756;2023-01-09T10:32:50;12.50;99.90
2477;DHT22;1249;51.270;6.756;2023-01-09T10:35:33;12.70;99.90
2477;DHT22;1249;51.270;6.756;2023-01-09T10:38:05;12.50;99.90
2477;DHT22;1249;51.270;6.756;2023-01-09T10:40:36;12.40;99.90
2477;DHT22;1249;51.270;6.756;2023-01-09T10:43:09;12.40;99.90
2477;DHT22;1249;51.270;6.756;2023-01-09T10:45:41;12.40;99.90
2477;DHT22;1249;51.270;6.756;2023-01-09T10:48:18;12.30;99.90
2477;DHT22;1249;51.270;6.756;2023-01-09T10:50:49;12.30;99.90
2477;DHT22;1249;51.270;6.756;2023-01-09T10:53:20;12.30;99.90
2477;DHT22;1249;51.270;6.756;2023-01-09T10:55:47;12.30;99.90
2477;DHT22;1249;51.270;6.756;2023-01-09T10:58:17;12.30;99.90
2477;DHT22;1249;51.270;6.756;2023-01-09T11:00:45;12.40;99.90
2477;DHT22;1249;51.270;6.756;2023-01-09T11:03:15;12.40;99.90
2477;DHT22;1249;51.270;6.756;2023-01-09T11:05:42;12.40;99.90
2477;DHT22;1249;51.270;6.756;2023-01-09T11:08:19;12.50;99.90
2477;DHT22;1249;51.270;6.756;2023-01-09T11:10:48;12.50;99.90
2477;DHT22;1249;51.270;6.756;2023-01-09T11:13:20;12.60;99.90
2477;DHT22;1249;51.270;6.756;2023-01-09T11:15:58;12.60;99.90
2477;DHT22;1249;51.270;6.756;2023-01-09T11:18:26;12.70;99.90
2477;DHT22;1249;51.270;6.756;2023-01-09T11:20:53;12.70;99.90
2477;DHT22;1249;51.270;6.756;2023-01-09T11:23:27;12.80;99.90
2477;DHT22;1249;51.270;6.756;2023-01-09T11:25:55;12.80;99.90
2477;DHT22;1249;51.270;6.756;2023-01-09T11:28:23;13.30;99.90
2477;DHT22;1249;51.270;6.756;2023-01-09T11:30:52;13.10;99.90
2477;DHT22;1249;51.270;6.756;2023-01-09T11:33:21;13.00;99.90
2477;DHT22;1249;51.270;6.756;2023-01-09T11:35:55;12.90;99.90
2477;DHT22;1249;51.270;6.756;2023-01-09T11:38:22;12.70;99.90
2477;DHT22;1249;51.270;6.756;2023-01-09T11:40:53;12.40;99.90
2477;DHT22;1249;51.270;6.756;2023-01-09T11:43:26;12.40;99.90
2477;DHT22;1249;51.270;6.756;2023-01-09T11:45:58;12.30;99.90
2477;DHT22;1249;51.270;6.756;2023-01-09T11:48:34;12.30;99.90
2477;DHT22;1249;51.270;6.756;2023-01-09T11:51:03;12.30;99.90
2477;DHT22;1249;51.270;6.756;2023-01-09T11:53:52;12.40;99.90
2477;DHT22;1249;51.270;6.756;2023-01-09T11:56:22;12.10;99.90
2477;DHT22;1249;51.270;6.756;2023-01-09T11:58:49;12.10;99.90
2477;DHT22;1249;51.270;6.756;2023-01-09T12:01:29;12.00;99.90
2477;DHT22;1249;51.270;6.756;2023-01-09T12:04:15;12.10;99.90
2477;DHT22;1249;51.270;6.756;2023-01-09T12:06:49;12.00;99.90
2477;DHT22;1249;51.270;6.756;2023-01-09T12:09:23;12.00;99.90
2477;DHT22;1249;51.270;6.756;2023-01-09T12:11:55;12.00;99.90
2477;DHT22;1249;51.270;6.756;2023-01-09T12:14:36;12.10;99.90
2477;DHT22;1249;51.270;6.756;2023-01-09T12:17:29;12.20;99.90
2477;DHT22;1249;51.270;6.756;2023-01-09T12:20:19;12.30;99.90
2477;DHT22;1249;51.270;6.756;2023-01-09T12:22:54;12.30;99.90
2477;DHT22;1249;51.270;6.756;2023-01-09T12:25:32;12.30;99.90
2477;DHT22;1249;51.270;6.756;2023-01-09T12:28:16;12.40;99.90
2477;DHT22;1249;51.270;6.756;2023-01-09T12:30:55;12.40;99.90
2477;DHT22;1249;51.270;6.756;2023-01-09T12:33:31;12.40;99.90
2477;DHT22;1249;51.270;6.756;2023-01-09T12:36:09;12.30;99.90
2477;DHT22;1249;51.270;6.756;2023-01-09T12:38:42;12.30;99.90
2477;DHT22;1249;51.270;6.756;2023-01-09T12:41:27;12.30;99.90
2477;DHT22;1249;51.270;6.756;2023-01-09T12:44:14;12.40;99.90
2477;DHT22;1249;51.270;6.756;2023-01-09T12:46:51;12.40;99.90
2477;DHT22;1249;51.270;6.756;2023-01-09T12:49:29;12.50;99.90
2477;DHT22;1249;51.270;6.756;2023-01-09T12:52:04;12.50;99.90
2477;DHT22;1249;51.270;6.756;2023-01-09T12:54:40;12.50;99.90
2477;DHT22;1249;51.270;6.756;2023-01-09T12:57:14;12.50;99.90
2477;DHT22;1249;51.270;6.756;2023-01-09T12:59:47;12.60;99.90
2477;DHT22;1249;51.270;6.756;2023-01-09T13:02:22;13.20;99.90
2477;DHT22;1249;51.270;6.756;2023-01-09T13:04:52;13.00;99.90
2477;DHT22;1249;51.270;6.756;2023-01-09T13:07:23;12.80;99.90
2477;DHT22;1249;51.270;6.756;2023-01-09T13:09:57;12.70;99.90
2477;DHT22;1249;51.270;6.756;2023-01-09T13:12:26;12.70;99.90
2477;DHT22;1249;51.270;6.756;2023-01-09T13:15:04;12.70;99.90
2477;DHT22;1249;51.270;6.756;2023-01-09T13:17:37;12.80;99.90
2477;DHT22;1249;51.270;6.756;2023-01-09T13:20:18;12.70;99.90
2477;DHT22;1249;51.270;6.756;2023-01-09T13:22:45;12.60;99.90
2477;DHT22;1249;51.270;6.756;2023-01-09T13:25:34;12.60;99.90
2477;DHT22;1249;51.270;6.756;2023-01-09T13:28:06;12.40;99.90
2477;DHT22;1249;51.270;6.756;2023-01-09T13:30:51;12.40;99.90
2477;DHT22;1249;51.270;6.756;2023-01-09T13:33:24;12.30;99.90
2477;DHT22;1249;51.270;6.756;2023-01-09T13:35:54;12.00;99.90
2477;DHT22;1249;51.270;6.756;2023-01-09T13:38:23;12.00;99.90
2477;DHT22;1249;51.270;6.756;2023-01-09T13:41:09;12.00;99.90
2477;DHT22;1249;51.270;6.756;2023-01-09T13:43:56;12.00;99.90
2477;DHT22;1249;51.270;6.756;2023-01-09T13:46:33;12.10;99.90
2477;DHT22;1249;51.270;6.756;2023-01-09T13:49:01;12.10;99.90
2477;DHT22;1249;51.270;6.756;2023-01-09T13:57:30;12.10;99.90
2477;DHT22;1249;51.270;6.756;2023-01-09T14:03:16;12.10;99.90
2477;DHT22;1249;51.270;6.756;2023-01-09T14:06:15;12.00;99.90
2477;DHT22;1249;51.270;6.756;2023-01-09T14:08:44;11.90;99.90
2477;DHT22;1249;51.270;6.756;2023-01-09T14:11:18;11.90;99.90
2477;DHT22;1249;51.270;6.756;2023-01-09T14:13:51;11.90;99.90
2477;DHT22;1249;51.270;6.756;2023-01-09T14:16:22;11.90;99.90
2477;DHT22;1249;51.270;6.756;2023-01-09T14:18:52;11.80;99.90
2477;DHT22;1249;51.270;6.756;2023-01-09T14:21:19;11.80;99.90
2477;DHT22;1249;51.270;6.756;2023-01-09T14:23:50;11.70;99.90
2477;DHT22;1249;51.270;6.756;2023-01-09T14:26:22;11.70;99.90
2477;DHT22;1249;51.270;6.756;2023-01-09T14:28:49;11.70;99.90
2477;DHT22;1249;51.270;6.756;2023-01-09T14:31:29;11.70;99.90
2477;DHT22;1249;51.270;6.756;2023-01-09T14:34:28;11.70;99.90
2477;DHT22;1249;51.270;6.756;2023-01-09T14:36:58;11.60;99.90
2477;DHT22;1249;51.270;6.756;2023-01-09T14:39:29;11.60;99.90
2477;DHT22;1249;51.270;6.756;2023-01-09T14:41:58;11.70;99.90
2477;DHT22;1249;51.270;6.756;2023-01-09T14:44:37;11.80;99.90
2477;DHT22;1249;51.270;6.756;2023-01-09T14:47:14;11.60;99.90
2477;DHT22;1249;51.270;6.756;2023-01-09T14:49:49;11.60;99.90
2477;DHT22;1249;51.270;6.756;2023-01-09T14:52:21;11.60;99.90
2477;DHT22;1249;51.270;6.756;2023-01-09T14:54:49;11.60;99.90
2477;DHT22;1249;51.270;6.756;2023-01-09T14:57:27;11.50;99.90
2477;DHT22;1249;51.270;6.756;2023-01-09T14:59:58;11.50;99.90
2477;DHT22;1249;51.270;6.756;2023-01-09T15:02:28;11.50;99.90
2477;DHT22;1249;51.270;6.756;2023-01-09T15:04:59;11.50;99.90
2477;DHT22;1249;51.270;6.756;2023-01-09T15:07:31;11.50;99.90
2477;DHT22;1249;51.270;6.756;2023-01-09T15:10:15;11.50;99.90
2477;DHT22;1249;51.270;6.756;2023-01-09T15:12:44;11.50;99.90
2477;DHT22;1249;51.270;6.756;2023-01-09T15:15:12;11.40;99.90
2477;DHT22;1249;51.270;6.756;2023-01-09T15:17:40;11.20;99.90
2477;DHT22;1249;51.270;6.756;2023-01-09T15:20:17;11.30;99.90
2477;DHT22;1249;51.270;6.756;2023-01-09T15:22:48;11.30;99.90
2477;DHT22;1249;51.270;6.756;2023-01-09T15:25:22;11.40;99.90
2477;DHT22;1249;51.270;6.756;2023-01-09T15:27:51;11.40;99.90
2477;DHT22;1249;51.270;6.756;2023-01-09T15:30:23;11.30;99.90
2477;DHT22;1249;51.270;6.756;2023-01-09T15:32:54;11.40;99.90
2477;DHT22;1249;51.270;6.756;2023-01-09T15:35:23;11.40;99.90
2477;DHT22;1249;51.270;6.756;2023-01-09T15:37:51;12.20;99.90
2477;DHT22;1249;51.270;6.756;2023-01-09T15:40:20;12.70;99.90
2477;DHT22;1249;51.270;6.756;2023-01-09T15:42:50;13.10;99.90
2477;DHT22;1249;51.270;6.756;2023-01-09T15:45:23;13.40;99.90
2477;DHT22;1249;51.270;6.756;2023-01-09T15:47:52;13.70;99.90
2477;DHT22;1249;51.270;6.756;2023-01-09T15:50:25;13.90;99.90
2477;DHT22;1249;51.270;6.756;2023-01-09T15:52:53;14.00;99.90
2477;DHT22;1249;51.270;6.756;2023-01-09T15:55:29;14.20;99.90
2477;DHT22;1249;51.270;6.756;2023-01-09T15:58:00;14.20;99.90
2477;DHT22;1249;51.270;6.756;2023-01-09T16:00:33;14.30;99.90
2477;DHT22;1249;51.270;6.756;2023-01-09T16:03:01;14.30;99.90
2477;DHT22;1249;51.270;6.756;2023-01-09T16:05:41;14.40;99.90
2477;DHT22;1249;51.270;6.756;2023-01-09T16:08:27;14.30;99.90
2477;DHT22;1249;51.270;6.756;2023-01-09T16:10:58;13.90;99.90
2477;DHT22;1249;51.270;6.756;2023-01-09T16:13:28;13.80;99.90
2477;DHT22;1249;51.270;6.756;2023-01-09T16:15:55;13.50;99.90
2477;DHT22;1249;51.270;6.756;2023-01-09T16:18:31;13.10;99.90
2477;DHT22;1249;51.270;6.756;2023-01-09T16:21:19;12.80;99.90
2477;DHT22;1249;51.270;6.756;2023-01-09T16:23:54;12.60;99.90
2477;DHT22;1249;51.270;6.756;2023-01-09T16:26:23;12.40;99.90
2477;DHT22;1249;51.270;6.756;2023-01-09T16:28:51;12.20;99.90
2477;DHT22;1249;51.270;6.756;2023-01-09T16:31:20;12.00;99.90
2477;DHT22;1249;51.270;6.756;2023-01-09T16:33:57;12.00;99.90
2477;DHT22;1249;51.270;6.756;2023-01-09T16:36:26;11.90;99.90
2477;DHT22;1249;51.270;6.756;2023-01-09T16:38:55;11.90;99.90